createdAt,value
2023-02-24T00:00:28.483Z,100.00
2023-02-24T00:03:12.450Z,100.00
2023-02-24T00:06:06.461Z,100.00
2023-02-24T00:08:54.453Z,100.00
2023-02-24T00:11:28.149Z,100.00
2023-02-24T00:14:16.502Z,100.00
2023-02-24T00:16:50.604Z,100.00
2023-02-24T00:19:41.488Z,100.00
2023-02-24T00:22:35.597Z,100.00
2023-02-24T00:25:29.465Z,100.00
2023-02-24T00:28:16.524Z,100.00
2023-02-24T00:30:49.625Z,100.00
2023-02-24T00:33:37.476Z,100.00
2023-02-24T00:36:12.589Z,100.00
2023-02-24T00:39:04.452Z,100.00
2023-02-24T00:41:40.221Z,100.00
2023-02-24T00:44:26.458Z,100.00
2023-02-24T00:47:01.580Z,100.00
2023-02-24T00:49:49.479Z,100.00
2023-02-24T00:52:34.457Z,100.00
2023-02-24T00:55:29.475Z,100.00
2023-02-24T00:58:26.457Z,100.00
2023-02-24T01:01:20.902Z,100.00
2023-02-24T01:03:55.599Z,100.00
2023-02-24T01:06:42.519Z,100.00
2023-02-24T01:09:23.592Z,100.00
2023-02-24T01:12:29.545Z,100.00
2023-02-24T01:15:03.249Z,100.00
2023-02-24T01:17:50.489Z,100.00
2023-02-24T01:20:30.564Z,100.00
2023-02-24T01:23:17.480Z,100.00
2023-02-24T01:25:58.254Z,100.00
2023-02-24T01:28:44.517Z,100.00
2023-02-24T01:31:24.104Z,100.00
2023-02-24T01:34:12.515Z,100.00
2023-02-24T01:36:55.486Z,100.00
2023-02-24T01:39:49.530Z,100.00
2023-02-24T01:42:36.525Z,100.00
2023-02-24T01:45:18.665Z,100.00
2023-02-24T01:48:11.482Z,100.00
2023-02-24T01:50:45.568Z,100.00
2023-02-24T01:53:32.522Z,100.00
2023-02-24T01:56:06.980Z,100.00
2023-02-24T01:58:54.524Z,100.00
2023-02-24T02:01:35.616Z,100.00
2023-02-24T02:04:40.525Z,100.00
2023-02-24T02:07:29.528Z,100.00
2023-02-24T02:10:13.524Z,100.00
2023-02-24T02:13:11.528Z,100.00
2023-02-24T02:16:26.626Z,100.00
2023-02-24T02:19:15.584Z,100.00
2023-02-24T02:22:14.512Z,100.00
2023-02-24T02:25:13.554Z,100.00
2023-02-24T02:28:09.573Z,100.00
2023-02-24T02:31:19.970Z,100.00
2023-02-24T02:34:08.522Z,100.00
2023-02-24T02:37:18.525Z,100.00
2023-02-24T02:40:07.527Z,100.00
2023-02-24T02:43:05.522Z,100.00
2023-02-24T02:46:22.600Z,100.00
2023-02-24T02:49:45.525Z,100.00
2023-02-24T02:52:41.526Z,100.00
2023-02-24T02:55:23.918Z,100.00
2023-02-24T02:58:15.543Z,100.00
2023-02-24T03:01:02.763Z,100.00
2023-02-24T03:03:53.531Z,100.00
2023-02-24T03:06:40.657Z,100.00
2023-02-24T03:09:32.522Z,100.00
2023-02-24T03:12:24.524Z,100.00
2023-02-24T03:15:24.539Z,100.00
2023-02-24T03:18:18.561Z,100.00
2023-02-24T03:21:24.937Z,100.00
2023-02-24T03:24:13.561Z,100.00
2023-02-24T03:26:58.307Z,100.00
2023-02-24T03:30:01.541Z,100.00
2023-02-24T03:32:51.955Z,100.00
2023-02-24T03:35:53.645Z,100.00
2023-02-24T03:38:48.493Z,100.00
2023-02-24T03:41:45.504Z,100.00
2023-02-24T03:44:18.680Z,100.00
2023-02-24T03:47:08.481Z,100.00
2023-02-24T03:49:43.830Z,100.00
2023-02-24T03:52:46.496Z,100.00
2023-02-24T03:56:05.552Z,100.00
2023-02-24T03:59:22.499Z,100.00
2023-02-24T04:02:12.614Z,100.00
2023-02-24T04:04:55.720Z,100.00
2023-02-24T04:08:07.550Z,100.00
2023-02-24T04:11:05.725Z,100.00
2023-02-24T04:14:17.680Z,100.00
2023-02-24T04:17:08.991Z,100.00
2023-02-24T04:19:58.498Z,100.00
2023-02-24T04:22:33.648Z,100.00
2023-02-24T04:25:24.561Z,100.00
2023-02-24T04:28:07.551Z,100.00
2023-02-24T04:31:05.628Z,100.00
2023-02-24T04:33:56.521Z,100.00
2023-02-24T04:36:29.658Z,100.00
2023-02-24T04:39:17.704Z,100.00
2023-02-24T04:41:52.659Z,100.00
2023-02-24T04:44:39.551Z,100.00
2023-02-24T04:47:19.571Z,100.00
2023-02-24T04:50:06.582Z,100.00
2023-02-24T04:52:39.670Z,100.00
2023-02-24T04:55:28.576Z,100.00
2023-02-24T04:58:03.639Z,100.00
2023-02-24T05:00:50.575Z,100.00
2023-02-24T05:03:28.707Z,100.00
2023-02-24T05:06:21.565Z,100.00
2023-02-24T05:09:01.586Z,100.00
2023-02-24T05:11:57.553Z,100.00
2023-02-24T05:14:46.583Z,100.00
2023-02-24T05:17:20.171Z,100.00
2023-02-24T05:20:24.584Z,100.00
2023-02-24T05:23:18.587Z,100.00
2023-02-24T05:26:15.598Z,100.00
2023-02-24T05:29:09.566Z,100.00
2023-02-24T05:31:56.686Z,100.00
2023-02-24T05:34:37.620Z,100.00
2023-02-24T05:37:24.583Z,100.00
2023-02-24T05:40:10.590Z,100.00
2023-02-24T05:42:58.592Z,100.00
2023-02-24T05:45:38.579Z,100.00
2023-02-24T05:48:32.578Z,100.00
2023-02-24T05:51:19.805Z,100.00
2023-02-24T05:54:02.575Z,100.00
2023-02-24T05:56:50.585Z,100.00
2023-02-24T05:59:32.658Z,100.00
2023-02-24T06:02:33.614Z,100.00
2023-02-24T06:05:36.669Z,100.00
2023-02-24T06:08:30.582Z,100.00
2023-02-24T06:11:26.727Z,100.00
2023-02-24T06:14:22.619Z,100.00
2023-02-24T06:17:16.580Z,100.00
2023-02-24T06:20:20.589Z,100.00
2023-02-24T06:23:15.612Z,100.00
2023-02-24T06:26:26.592Z,100.00
2023-02-24T06:29:13.610Z,100.00
2023-02-24T06:31:48.685Z,100.00
2023-02-24T06:34:36.585Z,100.00
2023-02-24T06:37:17.605Z,100.00
2023-02-24T06:40:05.623Z,100.00
2023-02-24T06:42:45.600Z,100.00
2023-02-24T06:45:33.680Z,100.00
2023-02-24T06:48:15.630Z,100.00
2023-02-24T06:51:11.602Z,100.00
2023-02-24T06:54:08.633Z,100.00
2023-02-24T06:57:05.630Z,100.00
2023-02-24T06:59:52.631Z,100.00
2023-02-24T07:02:39.742Z,100.00
2023-02-24T07:05:30.657Z,100.00
2023-02-24T07:08:03.713Z,100.00
2023-02-24T07:10:51.611Z,100.00
2023-02-24T07:13:24.715Z,100.00
2023-02-24T07:16:14.608Z,100.00
2023-02-24T07:18:48.946Z,100.00
2023-02-24T07:21:38.588Z,100.00
2023-02-24T07:24:20.631Z,100.00
2023-02-24T07:27:18.630Z,100.00
2023-02-24T07:30:05.621Z,100.00
2023-02-24T07:32:46.672Z,100.00
2023-02-24T07:38:34.627Z,100.00
2023-02-24T07:41:25.674Z,100.00
2023-02-24T07:44:09.631Z,100.00
2023-02-24T07:46:56.649Z,100.00
2023-02-24T07:49:37.632Z,100.00
2023-02-24T07:52:31.619Z,100.00
2023-02-24T07:55:18.645Z,100.00
2023-02-24T07:58:01.663Z,100.00
2023-02-24T08:01:07.622Z,100.00
2023-02-24T08:03:58.630Z,100.00
2023-02-24T08:06:47.968Z,100.00
2023-02-24T08:09:59.621Z,100.00
2023-02-24T08:12:35.200Z,100.00
2023-02-24T08:15:24.671Z,100.00
2023-02-24T08:18:06.638Z,100.00
2023-02-24T08:21:00.627Z,100.00
2023-02-24T08:23:51.636Z,100.00
2023-02-24T08:26:30.755Z,100.00
2023-02-24T08:29:20.945Z,100.00
2023-02-24T08:31:53.874Z,100.00
2023-02-24T08:34:40.636Z,100.00
2023-02-24T08:37:15.743Z,100.00
2023-02-24T08:42:53.731Z,100.00
2023-02-24T08:45:40.679Z,100.00
2023-02-24T08:48:26.376Z,100.00
2023-02-24T08:51:13.638Z,100.00
2023-02-24T08:53:47.192Z,100.00
2023-02-24T08:56:36.648Z,100.00
2023-02-24T08:59:29.131Z,100.00
2023-02-24T09:02:25.645Z,100.00
2023-02-24T09:05:03.943Z,100.00
2023-02-24T09:07:50.682Z,100.00
2023-02-24T09:10:32.639Z,100.00
2023-02-24T09:13:26.690Z,100.00
2023-02-24T09:16:25.005Z,100.00
2023-02-24T09:19:30.642Z,100.00
2023-02-24T09:22:21.825Z,100.00
2023-02-24T09:25:24.641Z,100.00
2023-02-24T09:28:15.651Z,100.00
2023-02-24T09:30:58.600Z,100.00
2023-02-24T09:33:45.634Z,100.00
2023-02-24T09:36:30.239Z,100.00
2023-02-24T09:39:16.692Z,100.00
2023-02-24T09:45:19.650Z,100.00
2023-02-24T09:48:01.663Z,100.00
2023-02-24T09:51:18.917Z,100.00
2023-02-24T09:54:20.614Z,100.00
2023-02-24T09:57:17.213Z,100.00
2023-02-24T10:00:34.502Z,100.00
2023-02-24T10:03:19.951Z,100.00
2023-02-24T10:06:18.697Z,100.00
2023-02-24T10:09:06.516Z,100.00
2023-02-24T10:15:25.665Z,100.00
2023-02-24T10:19:07.663Z,100.00
2023-02-24T10:22:14.705Z,100.00
2023-02-24T10:25:22.583Z,100.00
2023-02-24T10:28:26.698Z,100.00
2023-02-24T10:31:26.075Z,100.00
2023-02-24T10:34:17.677Z,100.00
2023-02-24T10:36:57.684Z,100.00
2023-02-24T10:39:51.487Z,100.00
2023-02-24T10:42:43.667Z,100.00
2023-02-24T10:45:40.693Z,100.00
2023-02-24T10:48:41.464Z,100.00
2023-02-24T10:51:28.698Z,100.00
2023-02-24T10:54:40.725Z,100.00
2023-02-24T10:57:24.697Z,100.00
2023-02-24T11:00:58.732Z,100.00
2023-02-24T11:03:54.688Z,100.00
2023-02-24T11:06:48.706Z,100.00
2023-02-24T11:09:35.669Z,100.00
2023-02-24T11:12:37.533Z,100.00
2023-02-24T11:15:44.584Z,100.00
2023-02-24T11:18:27.827Z,100.00
2023-02-24T11:21:24.686Z,100.00
2023-02-24T11:24:19.690Z,100.00
2023-02-24T11:27:09.818Z,100.00
2023-02-24T11:30:06.786Z,100.00
2023-02-24T11:33:23.697Z,100.00
2023-02-24T11:36:26.713Z,100.00
2023-02-24T11:39:47.685Z,100.00
2023-02-24T11:43:05.685Z,100.00
2023-02-24T11:45:57.744Z,100.00
2023-02-24T11:48:38.835Z,100.00
2023-02-24T11:51:29.704Z,100.00
2023-02-24T11:54:08.798Z,100.00
2023-02-24T11:57:06.702Z,100.00
2023-02-24T12:00:04.687Z,100.00
2023-02-24T12:03:04.124Z,100.00
2023-02-24T12:05:55.747Z,99.93
2023-02-24T12:08:37.886Z,100.00
2023-02-24T12:11:53.734Z,99.76
2023-02-24T12:14:51.819Z,99.93
2023-02-24T12:17:55.724Z,100.00
2023-02-24T12:20:46.715Z,100.00
2023-02-24T12:23:45.720Z,100.00
2023-02-24T12:26:38.713Z,100.00
2023-02-24T12:29:35.873Z,99.96
2023-02-24T12:32:56.756Z,100.00
2023-02-24T12:35:54.717Z,99.56
2023-02-24T12:38:49.765Z,99.65
2023-02-24T12:41:49.713Z,99.28
2023-02-24T12:44:43.839Z,99.35
2023-02-24T12:47:53.950Z,99.92
2023-02-24T12:50:53.720Z,99.65
2023-02-24T12:53:57.813Z,99.63
2023-02-24T12:57:06.748Z,99.45
2023-02-24T12:59:45.823Z,99.51
2023-02-24T13:03:07.741Z,99.46
2023-02-24T13:05:56.753Z,99.30
2023-02-24T13:09:04.716Z,99.68
2023-02-24T13:12:09.726Z,99.16
2023-02-24T13:14:57.749Z,98.91
2023-02-24T13:17:32.838Z,99.29
2023-02-24T13:20:20.719Z,99.00
2023-02-24T13:23:00.731Z,99.12
2023-02-24T13:25:54.735Z,98.45
2023-02-24T13:28:44.736Z,99.18
2023-02-24T13:31:23.691Z,99.21
2023-02-24T13:34:36.750Z,98.27
2023-02-24T13:37:09.975Z,98.73
2023-02-24T13:39:56.733Z,98.52
2023-02-24T13:42:42.765Z,98.19
2023-02-24T13:45:43.745Z,98.01
2023-02-24T13:48:42.754Z,97.98
2023-02-24T13:52:04.837Z,98.27
2023-02-24T13:55:04.751Z,98.07
2023-02-24T13:58:21.755Z,99.06
2023-02-24T14:01:22.234Z,98.87
2023-02-24T14:04:17.756Z,99.11
2023-02-24T14:06:57.879Z,99.06
2023-02-24T14:09:49.746Z,99.45
2023-02-24T14:12:33.742Z,99.39
2023-02-24T14:15:32.838Z,99.24
2023-02-24T14:18:35.757Z,99.38
2023-02-24T14:21:09.892Z,99.72
2023-02-24T14:24:08.768Z,99.90
2023-02-24T14:26:49.960Z,100.00
2023-02-24T14:29:44.211Z,99.83
2023-02-24T14:32:34.872Z,100.00
2023-02-24T14:35:38.779Z,100.00
2023-02-24T14:38:12.865Z,100.00
2023-02-24T14:40:59.776Z,100.00
2023-02-24T14:43:40.770Z,100.00
2023-02-24T14:46:27.838Z,100.00
2023-02-24T14:49:08.810Z,100.00
2023-02-24T14:52:01.771Z,100.00
2023-02-24T14:55:03.914Z,100.00
2023-02-24T14:58:08.767Z,100.00
2023-02-24T15:00:56.790Z,100.00
2023-02-24T15:03:57.776Z,100.00
2023-02-24T15:06:49.837Z,100.00
2023-02-24T15:09:34.812Z,100.00
2023-02-24T15:12:42.786Z,100.00
2023-02-24T15:15:34.783Z,100.00
2023-02-24T15:18:40.813Z,100.00
2023-02-24T15:21:45.793Z,100.00
2023-02-24T15:24:47.776Z,100.00
2023-02-24T15:27:42.794Z,100.00
2023-02-24T15:30:40.824Z,100.00
2023-02-24T15:33:30.795Z,100.00
2023-02-24T15:36:05.870Z,100.00
2023-02-24T15:38:53.817Z,100.00
2023-02-24T15:41:26.887Z,100.00
2023-02-24T15:44:28.780Z,100.00
2023-02-24T15:47:10.831Z,100.00
2023-02-24T15:49:57.793Z,100.00
2023-02-24T15:52:40.861Z,100.00
2023-02-24T15:55:41.920Z,100.00
2023-02-24T15:58:29.799Z,100.00
2023-02-24T16:01:02.911Z,100.00
2023-02-24T16:03:49.838Z,100.00
2023-02-24T16:06:28.502Z,100.00
2023-02-24T16:09:22.797Z,100.00
2023-02-24T16:11:55.928Z,100.00
2023-02-24T16:14:42.803Z,100.00
2023-02-24T16:17:43.894Z,100.00
2023-02-24T16:20:41.878Z,100.00
2023-02-24T16:23:16.884Z,100.00
2023-02-24T16:26:05.812Z,100.00
2023-02-24T16:28:38.883Z,100.00
2023-02-24T16:31:26.064Z,100.00
2023-02-24T16:34:01.095Z,100.00
2023-02-24T16:36:48.826Z,100.00
2023-02-24T16:39:28.823Z,100.00
2023-02-24T16:42:23.796Z,100.00
2023-02-24T16:45:17.821Z,100.00
2023-02-24T16:48:07.829Z,100.00
2023-02-24T16:50:45.969Z,100.00
2023-02-24T16:53:32.819Z,100.00
2023-02-24T16:56:12.837Z,100.00
2023-02-24T16:59:06.829Z,100.00
2023-02-24T17:01:53.815Z,100.00
2023-02-24T17:04:29.012Z,100.00
2023-02-24T17:07:17.812Z,100.00
2023-02-24T17:09:50.988Z,100.00
2023-02-24T17:12:37.826Z,100.00
2023-02-24T17:15:18.811Z,100.00
2023-02-24T17:18:12.832Z,100.00
2023-02-24T17:21:00.033Z,100.00
2023-02-24T17:23:32.943Z,100.00
2023-02-24T17:26:22.083Z,100.00
2023-02-24T17:28:55.935Z,100.00
2023-02-24T17:31:42.953Z,100.00
2023-02-24T17:34:27.846Z,100.00
2023-02-24T17:37:21.840Z,100.00
2023-02-24T17:40:15.839Z,100.00
2023-02-24T17:43:09.846Z,100.00
2023-02-24T17:45:57.864Z,100.00
2023-02-24T17:48:37.846Z,100.00
2023-02-24T17:51:26.836Z,100.00
2023-02-24T17:54:00.937Z,100.00
2023-02-24T17:56:47.832Z,100.00
2023-02-24T17:59:20.935Z,100.00
2023-02-24T18:02:08.907Z,100.00
2023-02-24T18:04:41.957Z,100.00
2023-02-24T18:07:28.856Z,100.00
2023-02-24T18:10:02.017Z,100.00
2023-02-24T18:12:48.836Z,100.00
2023-02-24T18:15:28.912Z,100.00
2023-02-24T18:18:15.906Z,100.00
2023-02-24T18:20:49.992Z,100.00
2023-02-24T18:23:44.846Z,100.00
2023-02-24T18:26:38.840Z,100.00
2023-02-24T18:29:32.848Z,100.00
2023-02-24T18:32:19.994Z,100.00
2023-02-24T18:34:53.033Z,100.00
2023-02-24T18:37:39.867Z,100.00
2023-02-24T18:40:20.840Z,100.00
2023-02-24T18:43:15.002Z,100.00
2023-02-24T18:46:07.028Z,100.00
2023-02-24T18:48:41.340Z,100.00
2023-02-24T18:51:29.876Z,100.00
2023-02-24T18:54:13.283Z,100.00
2023-02-24T18:57:06.872Z,100.00
2023-02-24T18:59:57.879Z,100.00
2023-02-24T19:02:37.886Z,100.00
2023-02-24T19:05:38.395Z,100.00
2023-02-24T19:08:25.869Z,100.00
2023-02-24T19:10:58.951Z,100.00
2023-02-24T19:13:45.930Z,100.00
2023-02-24T19:16:19.048Z,100.00
2023-02-24T19:19:06.871Z,100.00
2023-02-24T19:21:41.018Z,100.00
2023-02-24T19:24:27.875Z,100.00
2023-02-24T19:27:01.267Z,100.00
2023-02-24T19:29:47.870Z,100.00
2023-02-24T19:32:28.007Z,100.00
2023-02-24T19:35:23.026Z,100.00
2023-02-24T19:38:10.024Z,100.00
2023-02-24T19:40:43.099Z,100.00
2023-02-24T19:43:29.873Z,100.00
2023-02-24T19:46:03.051Z,100.00
2023-02-24T19:48:49.905Z,100.00
2023-02-24T19:51:25.981Z,100.00
2023-02-24T19:54:12.898Z,100.00
2023-02-24T19:56:52.893Z,100.00
2023-02-24T19:59:46.899Z,100.00
2023-02-24T20:02:40.889Z,100.00
2023-02-24T20:05:27.889Z,100.00
2023-02-24T20:08:07.894Z,100.00
2023-02-24T20:11:11.876Z,100.00
2023-02-24T20:13:59.907Z,100.00
2023-02-24T20:16:34.830Z,100.00
2023-02-24T20:19:22.894Z,100.00
2023-02-24T20:22:02.920Z,100.00
2023-02-24T20:24:57.060Z,100.00
2023-02-24T20:27:50.914Z,100.00
2023-02-24T20:30:37.936Z,100.00
2023-02-24T20:33:11.029Z,100.00
2023-02-24T20:35:58.891Z,100.00
2023-02-24T20:38:38.911Z,100.00
2023-02-24T20:41:27.899Z,100.00
2023-02-24T20:44:02.098Z,100.00
2023-02-24T20:46:48.931Z,100.00
2023-02-24T20:49:22.066Z,100.00
2023-02-24T20:52:08.919Z,100.00
2023-02-24T20:54:44.264Z,100.00
2023-02-24T20:57:30.935Z,100.00
2023-02-24T21:00:14.937Z,100.00
2023-02-24T21:03:13.907Z,100.00
2023-02-24T21:06:09.474Z,100.00
2023-02-24T21:08:45.803Z,100.00
2023-02-24T21:11:33.945Z,100.00
2023-02-24T21:14:13.908Z,100.00
2023-02-24T21:17:07.935Z,100.00
2023-02-24T21:19:55.910Z,100.00
2023-02-24T21:22:31.314Z,100.00
2023-02-24T21:25:17.979Z,100.00
2023-02-24T21:27:52.030Z,100.00
2023-02-24T21:30:39.015Z,100.00
2023-02-24T21:33:19.912Z,100.00
2023-02-24T21:36:17.933Z,100.00
2023-02-24T21:39:04.924Z,100.00
2023-02-24T21:41:38.059Z,100.00
2023-02-24T21:44:24.920Z,100.00
2023-02-24T21:46:58.084Z,100.00
2023-02-24T21:49:44.927Z,100.00
2023-02-24T21:52:18.026Z,100.00
2023-02-24T21:55:04.932Z,100.00
2023-02-24T21:57:41.108Z,100.00
2023-02-24T22:00:28.872Z,100.00
2023-02-24T22:03:08.991Z,100.00
2023-02-24T22:06:02.940Z,100.00
2023-02-24T22:08:49.971Z,100.00
2023-02-24T22:11:24.028Z,100.00
2023-02-24T22:14:13.925Z,100.00
2023-02-24T22:16:48.041Z,100.00
2023-02-24T22:19:34.938Z,100.00
2023-02-24T22:22:14.949Z,100.00
2023-02-24T22:25:08.944Z,100.00
2023-02-24T22:28:02.925Z,100.00
2023-02-24T22:30:49.960Z,100.00
2023-02-24T22:33:29.945Z,100.00
2023-02-24T22:36:18.949Z,100.00
2023-02-24T22:38:53.071Z,100.00
2023-02-24T22:41:41.957Z,100.00
2023-02-24T22:44:25.964Z,100.00
2023-02-24T22:47:19.932Z,100.00
2023-02-24T22:50:06.996Z,100.00
2023-02-24T22:52:40.049Z,100.00
2023-02-24T22:55:26.958Z,100.00
2023-02-24T22:58:06.951Z,100.00
2023-02-24T23:01:05.013Z,100.00
2023-02-24T23:03:53.138Z,100.00
2023-02-24T23:06:38.990Z,100.00
2023-02-24T23:09:32.951Z,100.00
2023-02-24T23:12:21.940Z,100.00
2023-02-24T23:14:55.073Z,100.00
2023-02-24T23:17:41.959Z,100.00
2023-02-24T23:20:16.315Z,100.00
2023-02-24T23:23:09.960Z,100.00
2023-02-24T23:26:03.983Z,100.00
2023-02-24T23:28:50.995Z,100.00
2023-02-24T23:31:33.041Z,100.00
2023-02-24T23:34:28.051Z,100.00
2023-02-24T23:37:22.977Z,100.00
2023-02-24T23:40:21.013Z,100.00
2023-02-24T23:42:54.401Z,100.00
2023-02-24T23:45:44.005Z,100.00
2023-02-24T23:48:20.805Z,100.00
2023-02-24T23:51:13.990Z,100.00
2023-02-24T23:53:56.035Z,100.00
2023-02-24T23:56:49.980Z,100.00
2023-02-24T23:59:44.030Z,100.00
